createdAt,value
2022-12-24T00:07:17.482Z,120.8
2022-12-24T00:21:25.754Z,120.8
2022-12-24T00:35:31.868Z,118.7
2022-12-24T00:49:38.063Z,117
2022-12-24T01:03:44.593Z,117.9
2022-12-24T01:17:50.623Z,115.4
2022-12-24T01:31:55.666Z,115.7
2022-12-24T01:46:02.534Z,114.7
2022-12-24T02:00:10.149Z,114.4
2022-12-24T02:14:16.961Z,112
2022-12-24T02:28:29.177Z,111.4
2022-12-24T02:42:39.125Z,110.5
2022-12-24T02:56:48.996Z,108.8
2022-12-24T03:10:53.918Z,108.4
2022-12-24T03:25:01.367Z,107.3
2022-12-24T03:39:09.968Z,107.2
2022-12-24T03:53:14.694Z,106.8
2022-12-24T04:07:23.172Z,107
2022-12-24T04:21:28.375Z,106.4
2022-12-24T04:35:38.497Z,105.5
2022-12-24T04:49:48.770Z,104.3
2022-12-24T05:03:58.664Z,103.2
2022-12-24T05:18:03.799Z,103.4
2022-12-24T05:32:12.583Z,102.2
2022-12-24T05:46:20.727Z,100.1
2022-12-24T06:00:27.280Z,100
2022-12-24T06:14:38.472Z,99.5
2022-12-24T06:28:48.376Z,98
2022-12-24T06:42:54.299Z,98.5
2022-12-24T06:56:58.038Z,97.2
2022-12-24T07:11:02.387Z,96.2
2022-12-24T07:25:11.826Z,95.9
2022-12-24T07:39:15.370Z,94.2
2022-12-24T07:53:22.529Z,93.3
2022-12-24T08:07:28.511Z,92.1
2022-12-24T08:21:41.674Z,89.1
2022-12-24T08:35:51.760Z,88.2
2022-12-24T08:49:57.973Z,88.2
2022-12-24T09:04:10.033Z,86.7
2022-12-24T09:18:18.982Z,84.7
2022-12-24T09:32:26.447Z,84.3
2022-12-24T09:46:36.369Z,82.9
2022-12-24T10:00:44.582Z,80.6
2022-12-24T10:14:50.751Z,81.4
2022-12-24T10:29:00.192Z,81
2022-12-24T10:43:09.007Z,81.9
2022-12-24T10:57:20.089Z,80.4
2022-12-24T11:11:19.976Z,79.7
2022-12-24T11:25:24.698Z,80.2
2022-12-24T11:39:35.596Z,79.2
2022-12-24T11:53:46.686Z,79.5
2022-12-24T12:07:57.000Z,79.2
2022-12-24T12:22:04.669Z,78.9
2022-12-24T12:36:11.588Z,78.6
2022-12-24T12:50:21.659Z,77.6
2022-12-24T13:04:29.623Z,78.3
2022-12-24T13:18:47.851Z,78.2
2022-12-24T13:32:50.478Z,93.2
2022-12-24T13:47:02.541Z,78.4
2022-12-24T14:15:16.340Z,76.3
2022-12-24T14:29:25.820Z,76.7
2022-12-24T14:43:34.907Z,75.3
2022-12-24T14:57:49.538Z,72.8
2022-12-24T15:11:56.531Z,71.6
2022-12-24T15:26:05.917Z,70.9
2022-12-24T15:40:12.715Z,72.7
2022-12-24T15:54:17.974Z,70.2
2022-12-24T16:08:26.920Z,68.3
2022-12-24T16:26:34.241Z,69.3
2022-12-24T16:40:25.065Z,69.8
2022-12-24T16:54:29.119Z,71
2022-12-24T17:08:41.625Z,70.3
2022-12-24T17:22:55.377Z,68.2
2022-12-24T17:37:08.222Z,68
2022-12-24T17:51:18.378Z,70.9
2022-12-24T18:19:38.439Z,71
2022-12-24T18:33:51.032Z,70.4
2022-12-24T18:48:00.291Z,70.4
2022-12-24T19:02:15.878Z,70
2022-12-24T19:16:28.216Z,68.6
2022-12-24T19:30:38.971Z,68.9
2022-12-24T19:44:46.094Z,69.3
2022-12-24T19:58:56.651Z,70
2022-12-24T20:13:09.432Z,70.3
2022-12-24T20:27:19.998Z,70.2
2022-12-24T20:41:29.270Z,68.9
2022-12-24T20:55:35.809Z,69.2
2022-12-24T21:09:47.039Z,68.2
2022-12-24T21:23:56.664Z,69.6
2022-12-24T21:38:07.073Z,70
2022-12-24T21:52:17.408Z,71.8
2022-12-24T22:06:27.738Z,71.7
2022-12-24T22:20:35.069Z,73
2022-12-24T22:34:47.363Z,73.5
2022-12-24T22:48:57.640Z,74.9
2022-12-24T23:03:05.755Z,73.9
2022-12-24T23:17:14.117Z,72.9
2022-12-24T23:31:24.882Z,72.2
2022-12-24T23:45:32.140Z,72.9
2022-12-24T23:59:39.472Z,73.9
